createdAt,value
2023-02-28T00:00:41.012Z,102488.91
2023-02-28T00:03:07.440Z,102486.22
2023-02-28T00:05:33.948Z,102493.56
2023-02-28T00:08:00.408Z,102489.06
2023-02-28T00:10:26.972Z,102490.72
2023-02-28T00:12:53.298Z,102492.59
2023-02-28T00:15:19.855Z,102495.41
2023-02-28T00:17:46.280Z,102496.22
2023-02-28T00:20:13.041Z,102499.91
2023-02-28T00:22:39.580Z,102491.06
2023-02-28T00:25:06.068Z,102491.25
2023-02-28T00:27:32.389Z,102494.72
2023-02-28T00:29:58.783Z,102505.28
2023-02-28T00:32:25.179Z,102505.44
2023-02-28T00:34:51.644Z,102497.59
2023-02-28T00:37:18.242Z,102503.59
2023-02-28T00:39:45.102Z,102504.59
2023-02-28T00:42:11.611Z,102505.78
2023-02-28T00:44:37.951Z,102498.72
2023-02-28T00:47:04.369Z,102500.44
2023-02-28T00:49:30.731Z,102504.09
2023-02-28T00:51:57.057Z,102503.25
2023-02-28T00:54:23.376Z,102496.25
2023-02-28T00:56:49.698Z,102505.94
2023-02-28T00:59:16.283Z,102495.41
2023-02-28T01:01:42.603Z,102501.59
2023-02-28T01:04:09.154Z,102502.41
2023-02-28T01:06:35.565Z,102498.06
2023-02-28T01:09:02.063Z,102506.09
2023-02-28T01:11:28.961Z,102500.91
2023-02-28T01:13:55.625Z,102499.09
2023-02-28T01:16:22.420Z,102491.22
2023-02-28T01:18:49.135Z,102487.69
2023-02-28T01:21:15.470Z,102484.19
2023-02-28T01:23:41.885Z,102487.03
2023-02-28T01:26:08.251Z,102488.03
2023-02-28T01:28:34.677Z,102485.38
2023-02-28T01:31:01.079Z,102482.69
2023-02-28T01:33:27.449Z,102482.69
2023-02-28T01:35:53.958Z,102470.44
2023-02-28T01:38:23.156Z,102481.16
2023-02-28T01:40:49.850Z,102478.31
2023-02-28T01:43:16.486Z,102467.63
2023-02-28T01:45:42.855Z,102467.63
2023-02-28T01:48:09.177Z,102467.78
2023-02-28T01:50:35.527Z,102467.97
2023-02-28T01:53:02.292Z,102468.78
2023-02-28T01:55:29.102Z,102471.47
2023-02-28T01:57:55.720Z,102471.63
2023-02-28T02:00:22.079Z,102471.63
2023-02-28T02:02:49.348Z,102467.28
2023-02-28T02:05:16.670Z,102469.13
2023-02-28T02:07:44.670Z,102469.13
2023-02-28T02:10:11.592Z,102466.47
2023-02-28T02:12:37.966Z,102462.09
2023-02-28T02:15:04.459Z,102461.28
2023-02-28T02:17:31.504Z,102461.28
2023-02-28T02:19:57.910Z,102456.91
2023-02-28T02:22:24.710Z,102464.09
2023-02-28T02:24:51.239Z,102460.59
2023-02-28T02:27:17.970Z,102462.94
2023-02-28T02:29:44.711Z,102455.25
2023-02-28T02:32:11.104Z,102452.41
2023-02-28T02:34:37.804Z,102457.09
2023-02-28T02:37:04.396Z,102459.78
2023-02-28T02:39:31.243Z,102457.09
2023-02-28T02:41:57.641Z,102460.59
2023-02-28T02:44:24.463Z,102461.59
2023-02-28T02:46:50.971Z,102453.72
2023-02-28T02:49:17.423Z,102455.56
2023-02-28T02:51:43.968Z,102452.88
2023-02-28T02:54:10.516Z,102458.22
2023-02-28T02:56:36.989Z,102457.41
2023-02-28T02:59:03.427Z,102456.56
2023-02-28T03:01:30.187Z,102461.09
2023-02-28T03:03:57.262Z,102461.09
2023-02-28T03:06:24.112Z,102464.59
2023-02-28T03:08:50.667Z,102459.41
2023-02-28T03:11:17.155Z,102458.56
2023-02-28T03:13:43.593Z,102456.06
2023-02-28T03:16:09.910Z,102463.94
2023-02-28T03:18:36.244Z,102456.91
2023-02-28T03:21:02.945Z,102455.22
2023-02-28T03:23:29.328Z,102466.75
2023-02-28T03:25:55.712Z,102462.25
2023-02-28T03:28:22.435Z,102463.25
2023-02-28T03:30:48.912Z,102465.91
2023-02-28T03:33:16.046Z,102464.25
2023-02-28T03:35:43.452Z,102463.41
2023-02-28T03:38:10.470Z,102465.25
2023-02-28T03:40:36.930Z,102464.41
2023-02-28T03:43:03.346Z,102468.09
2023-02-28T03:45:29.722Z,102470.91
2023-02-28T03:47:56.225Z,102468.09
2023-02-28T03:50:23.076Z,102469.91
2023-02-28T03:52:49.627Z,102471.75
2023-02-28T03:55:16.005Z,102475.44
2023-02-28T03:57:42.395Z,102472.94
2023-02-28T04:00:08.930Z,102480.94
2023-02-28T04:02:35.386Z,102481.75
2023-02-28T04:05:01.706Z,102478.28
2023-02-28T04:07:28.912Z,102476.41
2023-02-28T04:09:55.250Z,102484.44
2023-02-28T04:12:21.603Z,102481.09
2023-02-28T04:14:48.252Z,102489.13
2023-02-28T04:17:14.801Z,102485.59
2023-02-28T04:19:41.247Z,102488.28
2023-02-28T04:22:07.660Z,102484.78
2023-02-28T04:24:34.086Z,102483.94
2023-02-28T04:27:00.499Z,102492.97
2023-02-28T04:29:26.920Z,102497.47
2023-02-28T04:31:53.470Z,102495.78
2023-02-28T04:34:19.957Z,102496.59
2023-02-28T04:36:46.462Z,102503.81
2023-02-28T04:39:13.159Z,102492.28
2023-02-28T04:41:40.088Z,102501.13
2023-02-28T04:44:06.635Z,102503.81
2023-02-28T04:46:33.685Z,102496.81
2023-02-28T04:49:00.116Z,102497.97
2023-02-28T04:51:28.270Z,102498.78
2023-02-28T04:53:55.465Z,102503.97
2023-02-28T04:56:21.888Z,102508.66
2023-02-28T04:58:48.806Z,102507.81
2023-02-28T05:01:15.207Z,102503.31
2023-02-28T05:03:42.284Z,102509.47
2023-02-28T05:06:08.686Z,102506.13
2023-02-28T05:08:35.057Z,102507.81
2023-02-28T05:11:01.409Z,102510.63
2023-02-28T05:13:28.419Z,102511.63
2023-02-28T05:15:54.801Z,102510.78
2023-02-28T05:18:21.393Z,102514.31
2023-02-28T05:20:47.738Z,102520.66
2023-02-28T05:23:14.290Z,102512.66
2023-02-28T05:25:40.968Z,102514.47
2023-02-28T05:28:07.266Z,102511.78
2023-02-28T05:30:33.744Z,102520.81
2023-02-28T05:33:00.139Z,102526.97
2023-02-28T05:35:27.211Z,102526.16
2023-02-28T05:37:54.064Z,102533.19
2023-02-28T05:40:21.110Z,102527.13
2023-02-28T05:42:48.095Z,102528.00
2023-02-28T05:45:15.820Z,102531.66
2023-02-28T05:47:42.353Z,102536.16
2023-02-28T05:50:09.280Z,102537.81
2023-02-28T05:52:35.602Z,102536.31
2023-02-28T05:55:02.101Z,102539.84
2023-02-28T05:57:28.695Z,102542.50
2023-02-28T05:59:55.648Z,102547.84
2023-02-28T06:02:22.076Z,102559.41
2023-02-28T06:04:48.611Z,102552.34
2023-02-28T06:07:15.207Z,102552.34
2023-02-28T06:09:41.665Z,102549.88
2023-02-28T06:12:08.631Z,102558.69
2023-02-28T06:14:35.065Z,102555.38
2023-02-28T06:17:01.504Z,102556.34
2023-02-28T06:19:28.177Z,102557.19
2023-02-28T06:21:54.668Z,102560.00
2023-02-28T06:24:21.256Z,102561.69
2023-02-28T06:26:47.950Z,102564.53
2023-02-28T06:29:14.338Z,102562.69
2023-02-28T06:31:40.731Z,102565.34
2023-02-28T06:34:07.425Z,102568.19
2023-02-28T06:36:34.070Z,102566.66
2023-02-28T06:39:00.581Z,102559.66
2023-02-28T06:41:27.153Z,102573.88
2023-02-28T06:43:54.497Z,102566.16
2023-02-28T06:46:20.856Z,102583.34
2023-02-28T06:48:47.829Z,102580.97
2023-02-28T06:51:14.341Z,102577.50
2023-02-28T06:53:40.753Z,102575.63
2023-02-28T06:56:07.828Z,102578.16
2023-02-28T06:58:34.141Z,102583.34
2023-02-28T07:01:00.692Z,102584.50
2023-02-28T07:03:27.394Z,102586.19
2023-02-28T07:05:54.046Z,102588.19
2023-02-28T07:08:20.530Z,102590.00
2023-02-28T07:10:47.318Z,102594.19
2023-02-28T07:13:14.038Z,102589.84
2023-02-28T07:15:43.672Z,102589.00
2023-02-28T07:18:10.560Z,102583.81
2023-02-28T07:20:36.903Z,102595.34
2023-02-28T07:23:03.741Z,102590.84
2023-02-28T07:25:30.218Z,102596.19
2023-02-28T07:27:56.555Z,102595.34
2023-02-28T07:30:22.871Z,102596.19
2023-02-28T07:32:49.394Z,102594.50
2023-02-28T07:35:15.851Z,102600.69
2023-02-28T07:37:42.524Z,102591.00
2023-02-28T07:40:08.864Z,102593.69
2023-02-28T07:42:35.469Z,102591.97
2023-02-28T07:45:02.252Z,102595.50
2023-02-28T07:47:28.563Z,102598.16
2023-02-28T07:49:55.028Z,102603.66
2023-02-28T07:52:21.382Z,102602.66
2023-02-28T07:54:48.077Z,102604.66
2023-02-28T07:57:14.498Z,102607.34
2023-02-28T07:59:41.001Z,102604.66
2023-02-28T08:02:07.351Z,102604.66
2023-02-28T08:04:33.752Z,102600.31
2023-02-28T08:07:00.539Z,102603.00
2023-02-28T08:09:26.888Z,102605.50
2023-02-28T08:11:53.337Z,102595.94
2023-02-28T08:14:19.783Z,102595.94
2023-02-28T08:16:46.146Z,102596.81
2023-02-28T08:19:12.726Z,102595.94
2023-02-28T08:21:39.071Z,102596.94
2023-02-28T08:24:05.955Z,102603.97
2023-02-28T08:26:32.388Z,102607.63
2023-02-28T08:29:01.103Z,102599.63
2023-02-28T08:31:28.288Z,102600.47
2023-02-28T08:33:54.927Z,102601.63
2023-02-28T08:36:21.551Z,102598.81
2023-02-28T08:38:47.994Z,102605.13
2023-02-28T08:41:14.946Z,102601.47
2023-02-28T08:43:41.457Z,102597.09
2023-02-28T08:46:08.003Z,102598.81
2023-02-28T08:48:34.598Z,102599.94
2023-02-28T08:51:07.133Z,102608.75
2023-02-28T08:53:33.880Z,102606.97
2023-02-28T08:56:00.297Z,102608.66
2023-02-28T08:58:26.676Z,102610.63
2023-02-28T09:00:53.120Z,102603.56
2023-02-28T09:03:20.875Z,102606.25
2023-02-28T09:05:48.157Z,102603.56
2023-02-28T09:08:14.696Z,102598.22
2023-02-28T09:10:41.037Z,102600.09
2023-02-28T09:13:07.757Z,102596.56
2023-02-28T09:15:34.610Z,102592.88
2023-02-28T09:18:00.937Z,102594.75
2023-02-28T09:20:27.409Z,102599.94
2023-02-28T09:22:53.815Z,102596.56
2023-02-28T09:25:20.716Z,102598.22
2023-02-28T09:27:47.048Z,102593.03
2023-02-28T09:30:13.434Z,102595.72
2023-02-28T09:32:40.157Z,102600.22
2023-02-28T09:35:07.002Z,102597.41
2023-02-28T09:37:33.350Z,102600.09
2023-02-28T09:39:59.800Z,102589.53
2023-02-28T09:42:26.173Z,102591.38
2023-02-28T09:44:52.552Z,102595.72
2023-02-28T09:47:19.157Z,102592.22
2023-02-28T09:49:45.824Z,102598.56
2023-02-28T09:52:12.180Z,102595.88
2023-02-28T09:54:38.541Z,102595.03
2023-02-28T09:57:05.788Z,102593.22
2023-02-28T09:59:32.150Z,102595.88
2023-02-28T10:01:58.738Z,102594.19
2023-02-28T10:04:25.544Z,102595.88
2023-02-28T10:06:51.838Z,102596.88
2023-02-28T10:09:18.271Z,102591.53
2023-02-28T10:11:44.575Z,102600.38
2023-02-28T10:14:10.938Z,102588.84
2023-02-28T10:16:37.815Z,102596.03
2023-02-28T10:19:04.205Z,102596.03
2023-02-28T10:21:30.773Z,102590.00
2023-02-28T10:23:57.587Z,102590.69
2023-02-28T10:26:24.287Z,102587.34
2023-02-28T10:28:50.613Z,102595.19
2023-02-28T10:31:17.003Z,102590.84
2023-02-28T10:33:43.425Z,102585.66
2023-02-28T10:36:10.168Z,102576.78
2023-02-28T10:38:36.534Z,102580.31
2023-02-28T10:41:03.207Z,102582.13
2023-02-28T10:43:29.601Z,102587.47
2023-02-28T10:45:56.401Z,102579.47
2023-02-28T10:48:22.783Z,102580.47
2023-02-28T10:50:49.184Z,102582.13
2023-02-28T10:53:15.926Z,102581.31
2023-02-28T10:55:43.053Z,102582.13
2023-02-28T10:58:09.568Z,102583.13
2023-02-28T11:00:36.064Z,102576.13
2023-02-28T11:03:02.578Z,102577.81
2023-02-28T11:05:28.897Z,102579.81
2023-02-28T11:07:55.570Z,102566.28
2023-02-28T11:10:22.260Z,102564.44
2023-02-28T11:12:52.878Z,102568.13
2023-02-28T11:15:20.355Z,102573.47
2023-02-28T11:17:47.212Z,102569.94
2023-02-28T11:20:13.526Z,102568.13
2023-02-28T11:22:39.927Z,102570.78
2023-02-28T11:25:06.409Z,102569.13
2023-02-28T11:27:32.778Z,102566.44
2023-02-28T11:29:59.155Z,102574.47
2023-02-28T11:32:25.732Z,102564.59
2023-02-28T11:34:52.315Z,102563.06
2023-02-28T11:37:19.155Z,102559.41
2023-02-28T11:39:45.621Z,102560.25
2023-02-28T11:42:12.322Z,102566.59
2023-02-28T11:44:38.696Z,102576.44
2023-02-28T11:47:05.030Z,102567.41
2023-02-28T11:49:31.599Z,102567.41
2023-02-28T11:51:58.439Z,102557.72
2023-02-28T11:54:24.998Z,102564.94
2023-02-28T11:56:51.672Z,102556.91
2023-02-28T11:59:18.274Z,102545.38
2023-02-28T12:01:44.725Z,102555.22
2023-02-28T12:04:11.380Z,102544.38
2023-02-28T12:06:37.754Z,102542.72
2023-02-28T12:09:04.174Z,102543.56
2023-02-28T12:11:30.935Z,102535.69
2023-02-28T12:13:57.421Z,102537.38
2023-02-28T12:16:23.821Z,102541.88
2023-02-28T12:18:50.610Z,102536.53
2023-02-28T12:21:17.221Z,102541.03
2023-02-28T12:23:43.599Z,102533.03
2023-02-28T12:26:09.999Z,102531.19
2023-02-28T12:28:36.406Z,102530.38
2023-02-28T12:31:02.754Z,102514.34
2023-02-28T12:33:30.558Z,102518.00
2023-02-28T12:35:57.136Z,102512.66
2023-02-28T12:38:23.529Z,102508.31
2023-02-28T12:40:49.873Z,102511.81
2023-02-28T12:43:16.389Z,102504.66
2023-02-28T12:45:43.149Z,102498.47
2023-02-28T12:48:10.147Z,102497.47
2023-02-28T12:50:36.496Z,102489.59
2023-02-28T12:53:03.063Z,102486.13
2023-02-28T12:55:30.086Z,102486.94
2023-02-28T12:57:56.945Z,102480.63
2023-02-28T13:00:23.319Z,102482.59
2023-02-28T13:02:50.009Z,102474.44
2023-02-28T13:05:16.756Z,102477.25
2023-02-28T13:07:43.128Z,102475.44
2023-02-28T13:10:09.795Z,102471.06
2023-02-28T13:12:36.406Z,102462.25
2023-02-28T13:15:02.727Z,102467.56
2023-02-28T13:17:29.123Z,102455.38
2023-02-28T13:19:55.590Z,102462.53
2023-02-28T13:22:22.018Z,102455.38
2023-02-28T13:24:48.531Z,102454.53
2023-02-28T13:27:15.280Z,102453.69
2023-02-28T13:29:41.705Z,102457.19
2023-02-28T13:32:08.202Z,102455.38
2023-02-28T13:34:34.749Z,102455.38
2023-02-28T13:37:01.154Z,102450.03
2023-02-28T13:39:27.681Z,102456.19
2023-02-28T13:41:54.623Z,102452.72
2023-02-28T13:44:21.207Z,102456.19
2023-02-28T13:46:48.185Z,102453.38
2023-02-28T13:49:15.469Z,102446.38
2023-02-28T13:51:42.277Z,102441.88
2023-02-28T13:54:08.780Z,102446.22
2023-02-28T13:56:35.147Z,102445.22
2023-02-28T13:59:01.569Z,102445.22
2023-02-28T14:01:28.439Z,102443.22
2023-02-28T14:03:55.168Z,102439.56
2023-02-28T14:06:21.536Z,102440.38
2023-02-28T14:08:47.953Z,102435.88
2023-02-28T14:11:14.464Z,102439.91
2023-02-28T14:13:41.199Z,102433.25
2023-02-28T14:16:08.450Z,102432.75
2023-02-28T14:18:35.098Z,102429.34
2023-02-28T14:21:01.510Z,102430.19
2023-02-28T14:23:27.926Z,102430.06
2023-02-28T14:25:54.288Z,102437.97
2023-02-28T14:28:20.734Z,102435.31
2023-02-28T14:30:47.341Z,102439.69
2023-02-28T14:33:13.691Z,102434.69
2023-02-28T14:35:40.540Z,102428.34
2023-02-28T14:38:07.438Z,102423.84
2023-02-28T14:40:33.811Z,102421.16
2023-02-28T14:43:00.432Z,102422.19
2023-02-28T14:45:27.140Z,102415.16
2023-02-28T14:47:53.596Z,102418.66
2023-02-28T14:50:20.235Z,102410.81
2023-02-28T14:52:47.373Z,102415.66
2023-02-28T14:55:13.812Z,102414.16
2023-02-28T14:57:40.604Z,102417.84
2023-02-28T15:00:07.307Z,102418.22
2023-02-28T15:02:33.724Z,102417.34
2023-02-28T15:05:00.158Z,102412.81
2023-02-28T15:07:26.816Z,102412.94
2023-02-28T15:09:53.776Z,102421.13
2023-02-28T15:12:20.344Z,102418.44
2023-02-28T15:14:47.220Z,102421.94
2023-02-28T15:17:14.625Z,102415.06
2023-02-28T15:19:41.457Z,102415.22
2023-02-28T15:22:07.927Z,102405.63
2023-02-28T15:24:34.349Z,102401.41
2023-02-28T15:27:00.744Z,102400.53
2023-02-28T15:29:27.514Z,102396.16
2023-02-28T15:31:57.744Z,102394.47
2023-02-28T15:34:26.443Z,102406.97
2023-02-28T15:36:55.273Z,102395.72
2023-02-28T15:39:21.626Z,102392.50
2023-02-28T15:41:48.117Z,102398.03
2023-02-28T15:44:15.297Z,102397.50
2023-02-28T15:46:42.222Z,102394.94
2023-02-28T15:49:08.688Z,102397.09
2023-02-28T15:51:35.150Z,102394.91
2023-02-28T15:54:01.553Z,102388.97
2023-02-28T15:56:27.930Z,102400.50
2023-02-28T15:58:54.551Z,102397.59
2023-02-28T16:01:21.548Z,102404.72
2023-02-28T16:03:47.945Z,102401.97
2023-02-28T16:06:14.318Z,102410.78
2023-02-28T16:08:41.951Z,102405.53
2023-02-28T16:11:08.743Z,102396.94
2023-02-28T16:13:35.100Z,102405.72
2023-02-28T16:16:01.790Z,102396.97
2023-02-28T16:18:28.196Z,102407.97
2023-02-28T16:20:54.652Z,102400.25
2023-02-28T16:23:21.151Z,102406.72
2023-02-28T16:25:48.146Z,102405.97
2023-02-28T16:28:14.591Z,102409.97
2023-02-28T16:30:41.586Z,102416.47
2023-02-28T16:33:08.428Z,102417.75
2023-02-28T16:35:34.724Z,102424.09
2023-02-28T16:38:01.169Z,102425.56
2023-02-28T16:40:27.525Z,102421.47
2023-02-28T16:42:53.966Z,102419.88
2023-02-28T16:45:20.388Z,102421.19
2023-02-28T16:47:47.362Z,102420.00
2023-02-28T16:50:13.839Z,102421.47
2023-02-28T16:52:40.581Z,102420.91
2023-02-28T16:55:06.984Z,102414.13
2023-02-28T16:57:34.033Z,102410.03
2023-02-28T17:00:01.045Z,102417.09
2023-02-28T17:02:28.336Z,102409.50
2023-02-28T17:04:54.864Z,102412.81
2023-02-28T17:07:21.271Z,102412.44
2023-02-28T17:09:47.898Z,102424.69
2023-02-28T17:12:14.274Z,102423.66
2023-02-28T17:14:41.072Z,102426.16
2023-02-28T17:17:07.385Z,102422.63
2023-02-28T17:19:34.024Z,102431.91
2023-02-28T17:22:00.819Z,102428.59
2023-02-28T17:24:31.312Z,102439.72
2023-02-28T17:26:58.139Z,102435.53
2023-02-28T17:29:24.710Z,102442.13
2023-02-28T17:31:51.545Z,102439.63
2023-02-28T17:34:17.967Z,102443.88
2023-02-28T17:36:44.388Z,102439.47
2023-02-28T17:39:10.719Z,102436.31
2023-02-28T17:41:37.254Z,102441.88
2023-02-28T17:44:04.202Z,102443.91
2023-02-28T17:46:31.380Z,102447.16
2023-02-28T17:48:58.023Z,102448.19
2023-02-28T17:51:24.805Z,102450.03
2023-02-28T17:53:51.190Z,102447.06
2023-02-28T17:56:17.582Z,102446.41
2023-02-28T17:58:44.176Z,102447.59
2023-02-28T18:01:11.036Z,102443.63
2023-02-28T18:03:37.501Z,102437.44
2023-02-28T18:06:04.461Z,102443.16
2023-02-28T18:08:30.793Z,102441.69
2023-02-28T18:10:57.121Z,102437.34
2023-02-28T18:13:23.560Z,102439.34
2023-02-28T18:15:50.058Z,102444.09
2023-02-28T18:18:16.740Z,102451.31
2023-02-28T18:20:43.232Z,102451.47
2023-02-28T18:23:10.407Z,102450.84
2023-02-28T18:25:36.837Z,102443.78
2023-02-28T18:28:03.297Z,102442.13
2023-02-28T18:30:29.854Z,102439.59
2023-02-28T18:32:56.210Z,102436.28
2023-02-28T18:35:23.406Z,102443.50
2023-02-28T18:37:49.903Z,102436.66
2023-02-28T18:40:16.475Z,102451.09
2023-02-28T18:42:42.808Z,102438.69
2023-02-28T18:45:09.292Z,102454.09
2023-02-28T18:47:35.798Z,102461.34
2023-02-28T18:50:02.221Z,102456.34
2023-02-28T18:52:28.794Z,102453.81
2023-02-28T18:54:55.561Z,102451.50
2023-02-28T18:57:21.937Z,102456.59
2023-02-28T18:59:48.399Z,102453.91
2023-02-28T19:02:14.694Z,102455.78
2023-02-28T19:04:41.041Z,102458.63
2023-02-28T19:07:07.346Z,102466.50
2023-02-28T19:09:33.777Z,102460.81
2023-02-28T19:12:00.313Z,102461.22
2023-02-28T19:14:27.457Z,102464.88
2023-02-28T19:16:53.888Z,102466.75
2023-02-28T19:19:20.881Z,102466.75
2023-02-28T19:21:47.146Z,102472.28
2023-02-28T19:24:13.951Z,102466.94
2023-02-28T19:26:40.424Z,102461.72
2023-02-28T19:29:06.825Z,102465.25
2023-02-28T19:31:33.480Z,102469.31
2023-02-28T19:34:00.020Z,102472.19
2023-02-28T19:36:26.302Z,102469.66
2023-02-28T19:38:53.219Z,102470.69
2023-02-28T19:41:19.596Z,102467.84
2023-02-28T19:43:46.000Z,102463.09
2023-02-28T19:46:12.529Z,102469.97
2023-02-28T19:48:39.024Z,102470.81
2023-02-28T19:51:06.231Z,102468.75
2023-02-28T19:53:32.727Z,102463.03
2023-02-28T19:55:59.613Z,102472.75
2023-02-28T19:58:25.940Z,102475.94
2023-02-28T20:00:52.839Z,102478.63
2023-02-28T20:03:19.562Z,102478.41
2023-02-28T20:05:45.889Z,102475.56
2023-02-28T20:08:12.474Z,102476.41
2023-02-28T20:10:39.120Z,102472.88
2023-02-28T20:13:05.495Z,102467.50
2023-02-28T20:15:31.899Z,102472.53
2023-02-28T20:17:58.831Z,102470.00
2023-02-28T20:20:25.140Z,102477.03
2023-02-28T20:22:51.560Z,102473.53
2023-02-28T20:25:17.943Z,102464.47
2023-02-28T20:27:44.243Z,102461.59
2023-02-28T20:30:10.941Z,102464.28
2023-02-28T20:32:37.534Z,102471.16
2023-02-28T20:35:03.827Z,102465.41
2023-02-28T20:37:30.176Z,102465.41
2023-02-28T20:39:57.182Z,102455.66
2023-02-28T20:42:23.522Z,102466.22
2023-02-28T20:44:49.984Z,102467.09
2023-02-28T20:47:16.771Z,102466.22
2023-02-28T20:49:43.167Z,102462.91
2023-02-28T20:52:09.522Z,102456.69
2023-02-28T20:54:35.881Z,102458.56
2023-02-28T20:57:02.595Z,102454.19
2023-02-28T20:59:29.047Z,102448.81
2023-02-28T21:01:55.456Z,102445.94
2023-02-28T21:04:21.867Z,102453.38
2023-02-28T21:06:48.193Z,102450.50
2023-02-28T21:09:15.255Z,102448.81
2023-02-28T21:11:42.034Z,102437.44
2023-02-28T21:14:09.630Z,102436.28
2023-02-28T21:16:37.860Z,102428.25
2023-02-28T21:19:04.634Z,102442.53
2023-02-28T21:21:31.152Z,102437.47
2023-02-28T21:23:58.125Z,102442.66
2023-02-28T21:26:25.092Z,102439.41
2023-02-28T21:28:51.480Z,102445.97
2023-02-28T21:31:18.460Z,102444.78
2023-02-28T21:33:45.328Z,102444.41
2023-02-28T21:36:11.730Z,102450.06
2023-02-28T21:38:38.318Z,102453.72
2023-02-28T21:41:04.688Z,102446.97
2023-02-28T21:43:31.230Z,102456.50
2023-02-28T21:45:57.882Z,102457.69
2023-02-28T21:48:24.471Z,102459.63
2023-02-28T21:50:51.679Z,102459.28
2023-02-28T21:53:18.618Z,102464.19
2023-02-28T21:55:45.514Z,102467.47
2023-02-28T21:58:12.031Z,102467.56
2023-02-28T22:00:38.577Z,102466.63
2023-02-28T22:03:05.610Z,102465.97
2023-02-28T22:05:32.604Z,102474.13
2023-02-28T22:07:58.990Z,102472.34
2023-02-28T22:10:25.387Z,102469.72
2023-02-28T22:12:51.783Z,102473.34
2023-02-28T22:15:18.241Z,102469.75
2023-02-28T22:17:44.637Z,102473.72
2023-02-28T22:20:11.369Z,102470.28
2023-02-28T22:22:37.722Z,102475.75
2023-02-28T22:25:04.164Z,102471.44
2023-02-28T22:27:30.807Z,102469.84
2023-02-28T22:29:57.226Z,102467.41
2023-02-28T22:32:23.831Z,102473.28
2023-02-28T22:34:50.244Z,102471.69
2023-02-28T22:37:16.742Z,102474.81
2023-02-28T22:39:43.126Z,102474.63
2023-02-28T22:42:09.394Z,102473.28
2023-02-28T22:44:35.742Z,102473.81
2023-02-28T22:47:02.194Z,102476.00
2023-02-28T22:49:28.583Z,102478.38
2023-02-28T22:51:55.302Z,102486.53
2023-02-28T22:54:21.608Z,102483.78
2023-02-28T22:56:48.024Z,102479.09
2023-02-28T22:59:14.447Z,102485.06
2023-02-28T23:01:50.658Z,102483.75
2023-02-28T23:04:26.009Z,102478.94
2023-02-28T23:06:53.167Z,102478.47
2023-02-28T23:09:19.707Z,102482.19
2023-02-28T23:11:46.851Z,102489.78
2023-02-28T23:14:13.520Z,102478.56
2023-02-28T23:16:40.279Z,102488.88
2023-02-28T23:19:07.189Z,102490.09
2023-02-28T23:21:33.703Z,102497.66
2023-02-28T23:24:00.931Z,102493.69
2023-02-28T23:26:27.743Z,102496.09
2023-02-28T23:28:54.846Z,102499.16
2023-02-28T23:31:21.383Z,102505.72
2023-02-28T23:33:48.108Z,102520.56
2023-02-28T23:36:14.706Z,102514.72
2023-02-28T23:38:41.738Z,102522.78
2023-02-28T23:41:08.444Z,102514.44
2023-02-28T23:43:35.755Z,102510.91
2023-02-28T23:46:02.570Z,102497.84
2023-02-28T23:48:29.200Z,102500.72
2023-02-28T23:50:55.778Z,102500.63
2023-02-28T23:53:22.275Z,102506.00
2023-02-28T23:55:49.426Z,102495.97
2023-02-28T23:58:16.231Z,102496.69
